createdAt,value
2022-10-10T00:01:20.368Z,6.70
2022-10-10T00:03:47.975Z,6.70
2022-10-10T00:06:16.276Z,6.70
2022-10-10T00:08:44.648Z,6.70
2022-10-10T00:11:12.723Z,6.60
2022-10-10T00:13:40.794Z,6.60
2022-10-10T00:16:10.815Z,6.60
2022-10-10T00:18:41.761Z,6.60
2022-10-10T00:21:11.744Z,6.60
2022-10-10T00:23:41.658Z,6.60
2022-10-10T00:26:09.800Z,6.60
2022-10-10T00:28:38.664Z,6.70
2022-10-10T00:31:11.612Z,6.80
2022-10-10T00:33:41.413Z,6.80
2022-10-10T00:36:08.526Z,6.90
2022-10-10T00:38:38.608Z,7.00
2022-10-10T00:41:08.628Z,7.00
2022-10-10T00:43:38.794Z,7.00
2022-10-10T00:46:12.094Z,7.00
2022-10-10T00:48:44.439Z,7.10
2022-10-10T00:51:15.318Z,7.00
2022-10-10T00:53:49.300Z,7.00
2022-10-10T00:56:25.498Z,7.00
2022-10-10T00:58:55.450Z,6.90
2022-10-10T01:01:23.061Z,6.90
2022-10-10T01:03:50.453Z,6.80
2022-10-10T01:06:17.550Z,6.80
2022-10-10T01:08:46.657Z,6.70
2022-10-10T01:11:22.171Z,6.70
2022-10-10T01:14:21.291Z,6.70
2022-10-10T01:17:12.633Z,6.70
2022-10-10T01:20:01.771Z,6.60
2022-10-10T01:22:59.278Z,6.60
2022-10-10T01:25:30.048Z,6.50
2022-10-10T01:28:03.373Z,6.50
2022-10-10T01:30:35.218Z,6.50
2022-10-10T01:33:19.733Z,6.70
2022-10-10T01:35:53.375Z,6.70
2022-10-10T01:38:42.406Z,6.80
2022-10-10T01:41:17.288Z,6.80
2022-10-10T01:43:52.451Z,6.80
2022-10-10T01:46:19.984Z,6.80
2022-10-10T01:48:52.351Z,6.90
2022-10-10T01:51:43.451Z,6.90
2022-10-10T01:54:52.357Z,6.90
2022-10-10T01:57:25.787Z,6.90
2022-10-10T02:00:05.529Z,7.00
2022-10-10T02:02:36.010Z,6.90
2022-10-10T02:05:42.941Z,7.00
2022-10-10T02:08:36.264Z,7.00
2022-10-10T02:11:09.553Z,7.10
2022-10-10T02:13:43.774Z,7.10
2022-10-10T02:16:21.713Z,7.10
2022-10-10T02:18:54.288Z,7.00
2022-10-10T02:21:23.517Z,7.10
2022-10-10T02:23:54.082Z,7.10
2022-10-10T02:26:26.501Z,7.10
2022-10-10T02:28:56.676Z,7.10
2022-10-10T02:31:39.101Z,7.10
2022-10-10T02:34:19.529Z,7.00
2022-10-10T02:36:52.288Z,7.00
2022-10-10T02:39:27.350Z,6.90
2022-10-10T02:41:57.348Z,6.90
2022-10-10T02:44:25.966Z,6.90
2022-10-10T02:46:53.290Z,6.90
2022-10-10T02:49:26.659Z,6.80
2022-10-10T02:51:57.005Z,6.80
2022-10-10T02:54:25.595Z,6.80
2022-10-10T02:56:55.297Z,6.90
2022-10-10T02:59:22.914Z,7.00
2022-10-10T03:01:50.327Z,7.00
2022-10-10T03:04:17.742Z,7.10
2022-10-10T03:06:44.904Z,7.10
2022-10-10T03:09:12.178Z,7.10
2022-10-10T03:11:41.882Z,7.00
2022-10-10T03:14:09.141Z,6.90
2022-10-10T03:16:36.226Z,6.90
2022-10-10T03:19:03.827Z,6.80
2022-10-10T03:21:34.012Z,6.60
2022-10-10T03:24:01.043Z,6.60
2022-10-10T03:26:28.786Z,6.50
2022-10-10T03:28:55.840Z,6.50
2022-10-10T03:31:23.380Z,6.40
2022-10-10T03:33:50.636Z,6.40
2022-10-10T03:36:18.022Z,6.30
2022-10-10T03:38:47.503Z,6.20
2022-10-10T03:41:17.215Z,6.20
2022-10-10T03:43:44.221Z,6.20
2022-10-10T03:46:16.086Z,6.20
2022-10-10T03:48:43.910Z,6.20
2022-10-10T03:51:11.143Z,6.30
2022-10-10T03:53:38.718Z,6.30
2022-10-10T03:56:08.649Z,6.30
2022-10-10T03:58:35.786Z,6.30
2022-10-10T04:01:06.029Z,6.30
2022-10-10T04:03:33.661Z,6.30
2022-10-10T04:06:01.212Z,6.40
2022-10-10T04:08:28.572Z,6.50
2022-10-10T04:10:56.194Z,6.60
2022-10-10T04:13:26.527Z,6.90
2022-10-10T04:15:56.999Z,7.00
2022-10-10T04:18:26.678Z,7.10
2022-10-10T04:20:54.027Z,7.00
2022-10-10T04:23:23.692Z,6.90
2022-10-10T04:25:54.254Z,6.80
2022-10-10T04:28:21.530Z,6.70
2022-10-10T04:30:48.986Z,6.70
2022-10-10T04:33:16.194Z,6.70
2022-10-10T04:35:43.434Z,6.70
2022-10-10T04:38:12.748Z,6.60
2022-10-10T04:40:40.552Z,6.50
2022-10-10T04:43:08.470Z,6.40
2022-10-10T04:45:37.695Z,6.40
2022-10-10T04:48:07.661Z,6.60
2022-10-10T04:50:37.361Z,6.60
2022-10-10T04:53:04.476Z,6.80
2022-10-10T04:55:31.976Z,7.20
2022-10-10T04:57:59.028Z,7.40
2022-10-10T05:00:27.243Z,7.80
2022-10-10T05:02:54.767Z,8.30
2022-10-10T05:05:22.379Z,8.70
2022-10-10T05:07:54.457Z,8.90
2022-10-10T05:10:25.839Z,9.20
2022-10-10T05:12:53.621Z,9.50
2022-10-10T05:15:21.408Z,9.60
2022-10-10T05:17:50.820Z,9.70
2022-10-10T05:20:18.075Z,9.80
2022-10-10T05:22:45.347Z,9.90
2022-10-10T05:25:12.999Z,10.00
2022-10-10T05:27:39.974Z,10.10
2022-10-10T05:30:07.811Z,10.10
2022-10-10T05:32:35.151Z,10.20
2022-10-10T05:35:02.426Z,10.30
2022-10-10T05:37:29.675Z,10.70
2022-10-10T05:39:57.236Z,11.30
2022-10-10T05:42:26.726Z,12.10
2022-10-10T05:44:56.641Z,13.00
2022-10-10T05:47:27.546Z,13.80
2022-10-10T05:49:55.310Z,14.40
2022-10-10T05:52:24.552Z,15.10
2022-10-10T05:54:52.704Z,15.90
2022-10-10T05:57:19.755Z,16.20
2022-10-10T05:59:49.510Z,16.90
2022-10-10T06:02:17.063Z,17.10
2022-10-10T06:04:44.265Z,17.70
2022-10-10T06:07:11.615Z,18.10
2022-10-10T06:09:41.120Z,18.40
2022-10-10T06:12:08.188Z,19.40
2022-10-10T06:14:35.542Z,20.50
2022-10-10T06:17:05.278Z,20.90
2022-10-10T06:19:32.562Z,20.80
2022-10-10T06:22:02.742Z,21.60
2022-10-10T06:24:30.120Z,22.40
2022-10-10T06:26:57.086Z,22.60
2022-10-10T06:29:24.642Z,22.80
2022-10-10T06:31:51.869Z,23.10
2022-10-10T06:34:22.009Z,22.90
2022-10-10T06:36:50.383Z,23.30
2022-10-10T06:39:18.827Z,23.50
2022-10-10T06:41:45.960Z,22.80
2022-10-10T06:44:13.273Z,23.60
2022-10-10T06:46:40.465Z,23.10
2022-10-10T06:49:10.179Z,23.30
2022-10-10T06:51:37.294Z,22.80
2022-10-10T06:54:07.404Z,22.90
2022-10-10T06:56:34.551Z,22.80
2022-10-10T06:59:06.486Z,23.10
2022-10-10T07:01:33.705Z,23.50
2022-10-10T07:04:05.563Z,23.90
2022-10-10T07:06:35.196Z,24.00
2022-10-10T07:09:02.769Z,24.10
2022-10-10T07:11:30.300Z,24.00
2022-10-10T07:13:58.286Z,23.30
2022-10-10T07:16:25.384Z,23.30
2022-10-10T07:18:57.927Z,22.90
2022-10-10T07:21:25.067Z,22.20
2022-10-10T07:23:55.006Z,21.80
2022-10-10T07:26:22.208Z,21.70
2022-10-10T07:28:51.631Z,22.40
2022-10-10T07:31:19.030Z,23.30
2022-10-10T07:33:50.404Z,23.90
2022-10-10T07:36:19.153Z,24.50
2022-10-10T07:38:50.523Z,25.40
2022-10-10T07:41:18.212Z,25.70
2022-10-10T07:43:48.104Z,25.60
2022-10-10T07:46:19.990Z,25.10
2022-10-10T07:48:50.261Z,24.70
2022-10-10T07:51:17.684Z,23.50
2022-10-10T07:53:47.376Z,23.80
2022-10-10T07:56:14.395Z,24.90
2022-10-10T07:58:41.907Z,25.70
2022-10-10T08:01:12.663Z,26.20
2022-10-10T08:03:42.870Z,25.80
2022-10-10T08:06:14.427Z,26.10
2022-10-10T08:08:50.299Z,27.10
2022-10-10T08:11:18.797Z,27.50
2022-10-10T08:13:46.153Z,26.70
2022-10-10T08:16:13.166Z,28.10
2022-10-10T08:18:40.590Z,28.70
2022-10-10T08:21:10.361Z,29.00
2022-10-10T08:23:40.235Z,29.30
2022-10-10T08:26:10.837Z,29.60
2022-10-10T08:28:41.696Z,30.20
2022-10-10T08:31:14.899Z,31.10
2022-10-10T08:33:43.723Z,30.50
2022-10-10T08:36:20.784Z,29.80
2022-10-10T08:38:48.344Z,27.40
2022-10-10T08:41:32.753Z,26.40
2022-10-10T08:44:37.555Z,26.80
2022-10-10T08:47:05.119Z,26.20
2022-10-10T08:49:57.592Z,26.50
2022-10-10T08:52:39.517Z,25.80
2022-10-10T08:55:14.636Z,25.30
2022-10-10T08:57:50.735Z,25.10
2022-10-10T09:00:23.778Z,25.40
2022-10-10T09:02:57.424Z,25.90
2022-10-10T09:05:40.110Z,26.80
2022-10-10T09:08:40.614Z,26.30
2022-10-10T09:11:26.551Z,26.70
2022-10-10T09:14:19.717Z,26.70
2022-10-10T09:17:12.319Z,26.40
2022-10-10T09:20:10.451Z,27.20
2022-10-10T09:22:56.121Z,27.60
2022-10-10T09:25:47.389Z,29.00
2022-10-10T09:28:29.730Z,29.10
2022-10-10T09:31:01.065Z,28.30
2022-10-10T09:33:40.562Z,29.00
2022-10-10T09:36:13.999Z,29.50
2022-10-10T09:39:22.484Z,30.10
2022-10-10T09:42:01.553Z,29.20
2022-10-10T09:44:32.342Z,28.50
2022-10-10T09:46:59.875Z,28.20
2022-10-10T09:49:27.337Z,27.70
2022-10-10T09:51:54.345Z,27.00
2022-10-10T09:54:22.524Z,25.90
2022-10-10T09:56:57.902Z,25.20
2022-10-10T09:59:43.539Z,25.40
2022-10-10T10:02:21.475Z,25.20
2022-10-10T10:04:50.350Z,24.60
2022-10-10T10:07:34.281Z,22.50
2022-10-10T10:10:11.484Z,21.80
2022-10-10T10:12:41.835Z,21.00
2022-10-10T10:15:23.629Z,20.40
2022-10-10T10:18:09.582Z,20.00
2022-10-10T10:20:42.573Z,19.50
2022-10-10T10:23:34.028Z,19.20
2022-10-10T10:26:21.499Z,19.00
2022-10-10T10:28:49.659Z,18.90
2022-10-10T10:31:54.542Z,18.80
2022-10-10T10:34:33.711Z,18.90
2022-10-10T10:37:15.068Z,18.70
2022-10-10T10:40:27.928Z,18.30
2022-10-10T10:43:18.551Z,18.50
2022-10-10T10:46:14.834Z,18.30
2022-10-10T10:49:02.068Z,18.00
2022-10-10T10:51:53.867Z,17.80
2022-10-10T10:54:40.435Z,18.20
2022-10-10T10:57:45.620Z,18.50
2022-10-10T11:01:23.985Z,18.60
2022-10-10T11:05:16.403Z,18.80
2022-10-10T11:06:25.846Z,18.80
2022-10-10T11:08:52.955Z,18.60
2022-10-10T11:11:42.218Z,18.50
2022-10-10T11:14:46.633Z,18.60
2022-10-10T11:17:40.388Z,18.70
2022-10-10T11:20:16.893Z,18.70
2022-10-10T11:22:53.762Z,19.00
2022-10-10T11:25:49.620Z,19.20
2022-10-10T11:28:47.163Z,19.10
2022-10-10T11:31:28.571Z,19.30
2022-10-10T11:34:08.362Z,19.30
2022-10-10T11:36:41.479Z,19.10
2022-10-10T11:39:23.658Z,18.80
2022-10-10T11:42:07.725Z,18.40
2022-10-10T11:44:43.718Z,18.10
2022-10-10T11:47:19.558Z,17.80
2022-10-10T11:50:22.240Z,17.80
2022-10-10T11:52:57.419Z,17.70
2022-10-10T11:55:58.291Z,17.60
2022-10-10T11:58:27.412Z,17.70
2022-10-10T12:01:02.791Z,17.60
2022-10-10T12:03:30.203Z,17.60
2022-10-10T12:06:24.852Z,17.30
2022-10-10T12:09:01.466Z,17.30
2022-10-10T12:11:36.487Z,17.30
2022-10-10T12:14:06.985Z,17.10
2022-10-10T12:16:36.758Z,16.90
2022-10-10T12:19:16.175Z,16.70
2022-10-10T12:22:02.363Z,16.50
2022-10-10T12:24:42.591Z,16.50
2022-10-10T12:27:27.839Z,16.40
2022-10-10T12:29:57.695Z,16.30
2022-10-10T12:32:41.144Z,16.30
2022-10-10T12:35:31.188Z,16.10
2022-10-10T12:38:22.611Z,16.00
2022-10-10T12:41:14.141Z,16.20
2022-10-10T12:43:49.559Z,16.30
2022-10-10T12:46:21.760Z,16.20
2022-10-10T12:49:01.772Z,16.30
2022-10-10T12:51:36.387Z,16.20
2022-10-10T12:54:06.312Z,16.10
2022-10-10T12:56:43.801Z,16.10
2022-10-10T12:59:22.006Z,16.10
2022-10-10T13:02:15.416Z,16.10
2022-10-10T13:04:44.437Z,16.00
2022-10-10T13:07:17.688Z,16.00
2022-10-10T13:09:50.363Z,16.00
2022-10-10T13:12:27.154Z,16.10
2022-10-10T13:14:56.141Z,16.10
2022-10-10T13:17:30.226Z,16.00
2022-10-10T13:20:00.616Z,15.90
2022-10-10T13:22:36.627Z,16.00
2022-10-10T13:25:10.483Z,16.10
2022-10-10T13:27:37.930Z,16.30
2022-10-10T13:30:07.053Z,16.40
2022-10-10T13:32:36.003Z,16.40
2022-10-10T13:35:13.499Z,16.50
2022-10-10T13:37:43.876Z,16.40
2022-10-10T13:40:15.965Z,16.40
2022-10-10T13:42:43.901Z,16.40
2022-10-10T13:45:31.826Z,16.40
2022-10-10T13:48:00.410Z,16.20
2022-10-10T13:50:42.717Z,16.10
2022-10-10T13:53:28.184Z,16.20
2022-10-10T13:55:58.537Z,16.10
2022-10-10T13:58:32.360Z,16.00
2022-10-10T14:01:05.686Z,15.90
2022-10-10T14:03:33.970Z,15.80
2022-10-10T14:06:03.650Z,15.80
2022-10-10T14:08:34.100Z,15.80
2022-10-10T14:11:07.928Z,15.80
2022-10-10T14:13:38.891Z,15.80
2022-10-10T14:16:18.961Z,15.70
2022-10-10T14:18:46.869Z,15.70
2022-10-10T14:21:16.501Z,15.70
2022-10-10T14:23:43.466Z,15.60
2022-10-10T14:26:15.171Z,15.60
2022-10-10T14:28:43.741Z,15.60
2022-10-10T14:31:13.523Z,15.60
2022-10-10T14:33:40.744Z,15.60
2022-10-10T14:36:08.219Z,15.70
2022-10-10T14:38:38.024Z,15.70
2022-10-10T14:41:05.946Z,15.70
2022-10-10T14:43:34.075Z,15.70
2022-10-10T14:46:01.434Z,15.80
2022-10-10T14:48:28.959Z,15.80
2022-10-10T14:50:56.317Z,15.80
2022-10-10T14:53:26.665Z,15.80
2022-10-10T14:55:56.266Z,15.80
2022-10-10T14:58:23.867Z,15.70
2022-10-10T15:00:51.796Z,15.70
2022-10-10T15:03:21.820Z,15.60
2022-10-10T15:05:49.777Z,15.50
2022-10-10T15:08:20.157Z,15.50
2022-10-10T15:10:47.670Z,15.40
2022-10-10T15:13:20.044Z,15.40
2022-10-10T15:15:47.470Z,15.40
2022-10-10T15:18:39.640Z,15.30
2022-10-10T15:21:10.547Z,15.30
2022-10-10T15:23:40.782Z,15.20
2022-10-10T15:26:08.433Z,15.20
2022-10-10T15:28:35.710Z,15.20
2022-10-10T15:31:03.489Z,15.20
2022-10-10T15:33:30.901Z,15.20
2022-10-10T15:36:10.443Z,15.20
2022-10-10T15:38:39.011Z,15.20
2022-10-10T15:41:10.038Z,15.20
2022-10-10T15:43:51.127Z,15.20
2022-10-10T15:46:28.370Z,15.20
2022-10-10T15:49:01.121Z,15.20
2022-10-10T15:51:29.402Z,15.10
2022-10-10T15:53:59.687Z,15.10
2022-10-10T15:56:27.209Z,15.10
2022-10-10T15:58:58.622Z,15.00
2022-10-10T16:01:26.684Z,15.00
2022-10-10T16:03:54.430Z,14.90
2022-10-10T16:06:25.412Z,14.90
2022-10-10T16:09:10.009Z,14.90
2022-10-10T16:11:42.851Z,14.90
2022-10-10T16:14:10.905Z,14.80
2022-10-10T16:16:38.161Z,14.80
2022-10-10T16:19:05.812Z,14.80
2022-10-10T16:21:32.986Z,14.80
2022-10-10T16:24:00.317Z,14.70
2022-10-10T16:26:30.567Z,14.60
2022-10-10T16:28:58.094Z,14.60
2022-10-10T16:31:25.226Z,14.60
2022-10-10T16:33:56.269Z,14.50
2022-10-10T16:36:25.949Z,14.60
2022-10-10T16:38:54.838Z,14.60
2022-10-10T16:41:46.463Z,14.50
2022-10-10T16:44:12.825Z,14.50
2022-10-10T16:46:39.929Z,14.40
2022-10-10T16:49:07.212Z,14.40
2022-10-10T16:51:36.991Z,14.40
2022-10-10T16:54:09.510Z,14.40
2022-10-10T16:56:36.971Z,14.40
2022-10-10T16:59:06.693Z,14.40
2022-10-10T17:01:34.537Z,14.40
2022-10-10T17:04:04.815Z,14.40
2022-10-10T17:06:35.180Z,14.40
2022-10-10T17:09:07.577Z,14.40
2022-10-10T17:11:37.302Z,14.40
2022-10-10T17:14:05.157Z,14.40
2022-10-10T17:19:20.214Z,14.40
2022-10-10T17:21:47.789Z,14.40
2022-10-10T17:24:15.590Z,14.40
2022-10-10T17:26:43.051Z,14.40
2022-10-10T17:29:12.609Z,14.40
2022-10-10T17:31:40.351Z,14.50
2022-10-10T17:34:07.945Z,14.50
2022-10-10T17:36:35.135Z,14.40
2022-10-10T17:39:02.236Z,14.40
2022-10-10T17:41:30.069Z,14.40
2022-10-10T17:43:57.224Z,14.40
2022-10-10T17:46:35.167Z,14.40
2022-10-10T17:49:08.309Z,14.40
2022-10-10T17:51:36.704Z,14.40
2022-10-10T17:54:04.699Z,14.50
2022-10-10T17:56:32.901Z,14.50
2022-10-10T17:58:59.976Z,14.50
2022-10-10T18:01:27.736Z,14.50
2022-10-10T18:03:55.169Z,14.60
2022-10-10T18:06:25.428Z,14.60
2022-10-10T18:08:56.895Z,14.50
2022-10-10T18:11:31.755Z,14.50
2022-10-10T18:14:04.333Z,14.50
2022-10-10T18:16:36.914Z,14.40
2022-10-10T18:19:06.614Z,14.40
2022-10-10T18:21:35.037Z,14.40
2022-10-10T18:24:04.811Z,14.40
2022-10-10T18:26:32.385Z,14.40
2022-10-10T18:29:00.074Z,14.40
2022-10-10T18:31:32.220Z,14.40
2022-10-10T18:34:05.615Z,14.40
2022-10-10T18:36:36.170Z,14.30
2022-10-10T18:39:07.980Z,14.40
2022-10-10T18:41:35.560Z,14.40
2022-10-10T18:44:05.744Z,14.40
2022-10-10T18:46:33.986Z,14.30
2022-10-10T18:49:07.496Z,14.30
2022-10-10T18:51:39.137Z,14.30
2022-10-10T18:54:09.594Z,14.30
2022-10-10T18:56:39.364Z,14.30
2022-10-10T18:59:10.984Z,14.20
2022-10-10T19:01:39.075Z,14.20
2022-10-10T19:04:08.870Z,14.20
2022-10-10T19:06:39.969Z,14.20
2022-10-10T19:09:10.040Z,14.10
2022-10-10T19:11:39.043Z,14.10
2022-10-10T19:14:09.025Z,14.10
2022-10-10T19:16:37.157Z,14.10
2022-10-10T19:19:04.667Z,14.00
2022-10-10T19:21:37.480Z,14.00
2022-10-10T19:24:07.658Z,13.90
2022-10-10T19:26:35.042Z,13.90
2022-10-10T19:29:08.753Z,13.80
2022-10-10T19:31:40.136Z,13.80
2022-10-10T19:34:07.678Z,13.80
2022-10-10T19:36:38.446Z,13.80
2022-10-10T19:39:10.148Z,13.70
2022-10-10T19:41:37.175Z,13.80
2022-10-10T19:44:04.491Z,13.80
2022-10-10T19:46:36.637Z,13.80
2022-10-10T19:49:06.383Z,13.80
2022-10-10T19:51:34.135Z,13.80
2022-10-10T19:54:01.324Z,13.80
2022-10-10T19:56:28.447Z,13.90
2022-10-10T19:58:58.799Z,13.90
2022-10-10T20:01:30.340Z,13.90
2022-10-10T20:03:59.058Z,13.80
2022-10-10T20:06:26.564Z,13.80
2022-10-10T20:08:54.091Z,13.80
2022-10-10T20:11:21.967Z,13.80
2022-10-10T20:13:52.346Z,13.80
2022-10-10T20:16:20.114Z,13.90
2022-10-10T20:18:47.621Z,13.80
2022-10-10T20:21:18.404Z,13.90
2022-10-10T20:23:46.701Z,13.90
2022-10-10T20:26:19.565Z,13.90
2022-10-10T20:28:47.918Z,13.90
2022-10-10T20:31:25.644Z,13.90
2022-10-10T20:33:54.551Z,13.90
2022-10-10T20:36:23.213Z,13.90
2022-10-10T20:38:54.953Z,13.90
2022-10-10T20:41:24.436Z,13.90
2022-10-10T20:43:56.313Z,13.90
2022-10-10T20:46:24.249Z,13.90
2022-10-10T20:48:54.075Z,13.90
2022-10-10T20:51:21.136Z,14.00
2022-10-10T20:53:56.750Z,14.00
2022-10-10T20:56:24.645Z,14.00
2022-10-10T20:58:54.513Z,14.00
2022-10-10T21:01:23.956Z,14.00
2022-10-10T21:03:51.175Z,14.00
2022-10-10T21:06:26.811Z,13.90
2022-10-10T21:08:54.826Z,13.90
2022-10-10T21:11:25.881Z,13.90
2022-10-10T21:13:55.230Z,13.90
2022-10-10T21:16:29.994Z,13.90
2022-10-10T21:19:00.037Z,13.90
2022-10-10T21:21:28.812Z,13.80
2022-10-10T21:23:57.051Z,13.80
2022-10-10T21:26:28.373Z,13.90
2022-10-10T21:28:56.350Z,13.80
2022-10-10T21:31:24.566Z,13.70
2022-10-10T21:33:57.573Z,13.70
2022-10-10T21:36:26.098Z,13.60
2022-10-10T21:38:54.313Z,13.60
2022-10-10T21:41:24.616Z,13.50
2022-10-10T21:43:54.778Z,13.50
2022-10-10T21:46:25.021Z,13.50
2022-10-10T21:48:53.405Z,13.40
2022-10-10T21:51:21.238Z,13.40
2022-10-10T21:53:54.553Z,13.40
2022-10-10T21:56:22.198Z,13.40
2022-10-10T21:58:51.656Z,13.40
2022-10-10T22:01:24.080Z,13.30
2022-10-10T22:03:54.269Z,13.30
2022-10-10T22:06:24.951Z,13.30
2022-10-10T22:08:53.629Z,13.30
2022-10-10T22:11:23.256Z,13.20
2022-10-10T22:13:50.907Z,13.20
2022-10-10T22:16:21.320Z,13.20
2022-10-10T22:18:52.491Z,13.10
2022-10-10T22:21:20.366Z,13.10
2022-10-10T22:23:47.518Z,13.10
2022-10-10T22:26:16.929Z,13.00
2022-10-10T22:28:45.492Z,13.00
2022-10-10T22:31:14.947Z,12.90
2022-10-10T22:33:42.788Z,12.80
2022-10-10T22:36:10.362Z,12.80
2022-10-10T22:38:42.775Z,12.80
2022-10-10T22:41:11.908Z,12.70
2022-10-10T22:43:39.270Z,12.70
2022-10-10T22:46:07.143Z,12.70
2022-10-10T22:48:37.707Z,12.70
2022-10-10T22:51:08.458Z,12.70
2022-10-10T22:53:39.366Z,12.80
2022-10-10T22:56:07.653Z,12.80
2022-10-10T22:58:36.833Z,12.80
2022-10-10T23:01:11.212Z,12.80
2022-10-10T23:03:41.334Z,12.80
2022-10-10T23:06:09.263Z,12.70
2022-10-10T23:08:38.985Z,12.70
2022-10-10T23:11:08.272Z,12.60
2022-10-10T23:13:35.650Z,12.50
2022-10-10T23:16:03.303Z,12.40
2022-10-10T23:18:31.063Z,12.40
2022-10-10T23:20:58.656Z,12.30
2022-10-10T23:23:26.682Z,12.30
2022-10-10T23:25:56.018Z,12.30
2022-10-10T23:28:23.500Z,12.20
2022-10-10T23:30:50.812Z,12.20
2022-10-10T23:33:20.115Z,12.10
2022-10-10T23:35:59.902Z,12.00
2022-10-10T23:38:30.378Z,12.00
2022-10-10T23:40:57.764Z,11.90
2022-10-10T23:43:27.036Z,11.90
2022-10-10T23:45:54.462Z,11.90
2022-10-10T23:48:24.179Z,11.90
2022-10-10T23:50:53.884Z,11.90
2022-10-10T23:53:21.210Z,11.90
2022-10-10T23:55:50.830Z,11.90
2022-10-10T23:58:18.044Z,12.00
